Tiempo atmosférico en la estación meteorológica de Castejon De Valdejasa, Zaragoza (442 m.)



Fecha
DESCASC
Temp. máxima en grados centígrados (hora)
DESCASC
Temp. mínima en grados centígrados (hora)
DESCASC
Temp. media en grados centígrados
DESCASC
Racha de viento máxima en m/sg (hora)
DESCASC
Velocidad máxima media en intervalos de 10 minutos(hora)
DESCASC
Precipitaciones diarias en mm
DESCASC
Precipitaciones de 00:00 a 06:00 en mm
DESCASC
Precipitaciones de 06:00 a 12:00 en mm
DESCASC
Precipitaciones de 12:00 a 18:00 en mm
DESCASC
Precipitaciones de 18:00 a 24:00 en mm
DESCASC
31-05-2020 28.3 (15:30) 14.9 (06:20) 21.6 16.39 (17:40) 10.56 (17:40) 1.2 0 0 0.6 0.6
30-05-2020 29.5 (18:00) 14.1 (05:50) 21.8 13.33 (00:40) 8.61 (00:50) 0 0 0 0 0
28-05-2020 28.5 (18:40) 15.2 (00:00) 21.8 9.17 (03:50) 7.5 (03:50) 0 0 0 0 0
27-05-2020 27.7 (16:50) 13.7 (07:10) 20.7 11.67 (16:40) 5.83 (23:00) 0 0 0 0 0
26-05-2020 25.7 (18:30) 12.4 (00:00) 19.1 7.78 (15:50) 5.28 (18:00) 0 0 0 0 0
25-05-2020 23.4 (17:30) 14.7 (00:00) 19 -- (--) -- (--) 0 0 0 0 0
24-05-2020 24.7 (17:20) 9.4 (06:40) 17.1 11.39 (03:10) 7.22 (00:10) 0 0 0 0 0
23-05-2020 23.5 (00:00) 12.1 (00:00) 17.8 15.28 (18:40) 9.72 (18:40) 0 0 0 0 0
22-05-2020 31.5 (17:10) 16.4 (00:00) 23.9 8.89 (20:30) 6.39 (21:40) 0 0 0 0 0
21-05-2020 29.7 (19:10) 12.6 (00:00) 21.2 6.39 (17:30) 4.17 (13:20) 0 0 0 0 0
20-05-2020 27.4 (17:50) 11.2 (00:00) 19.3 6.67 (15:10) 4.72 (15:30) 0 0 0 0 0
19-05-2020 25.6 (17:20) 9.7 (04:30) 17.7 11.11 (18:00) 8.06 (16:50) 0 0 0 0 0
18-05-2020 23.3 (16:20) 8.5 (00:00) 15.9 11.39 (18:10) 8.33 (18:10) 0 0 0 0 0
17-05-2020 20.7 (17:20) 7.5 (00:00) 14.1 11.67 (20:00) 7.22 (17:00) 0 0 0 0 0
16-05-2020 19.1 (17:30) 8.6 (00:00) 13.9 14.17 (18:00) 8.89 (18:10) 0.2 0.2 0 0 0
15-05-2020 14.9 (16:30) 9.3 (07:50) 12.1 8.61 (10:40) 6.39 (16:20) 3.2 1.4 1.8 0 0
14-05-2020 15.7 (14:10) 10 (00:00) 12.8 8.33 (16:00) 6.39 (16:00) 7.4 0 0 5.4 2
13-05-2020 17.8 (19:50) 9.3 (00:00) 13.5 10.56 (00:50) 7.22 (01:00) 5.8 5.8 0 0 0
12-05-2020 17.6 (13:10) 8.5 (07:30) 13.1 7.5 (00:10) 5 (01:00) 1 0 0 0 1
11-05-2020 20.7 (18:00) 11 (00:00) 15.9 11.94 (14:30) 7.22 (14:30) 0 0 0 0 0
10-05-2020 15.6 (00:00) 11.1 (00:00) 13.4 14.72 (05:40) 11.11 (05:40) 22.8 3.2 0 15 4.6
09-05-2020 24.9 (16:00) 11.2 (07:40) 18 16.39 (22:20) 11.11 (22:30) 6.6 4.6 2 0 0
08-05-2020 25.6 (16:20) 14 (00:00) 19.8 15.83 (23:00) 12.22 (23:00) 0.4 0 0 0 0.4
07-05-2020 26.4 (16:20) 12.3 (00:00) 19.3 14.44 (19:50) 11.39 (18:30) 0 0 0 0 0
06-05-2020 -- (--) -- (--) -- -- (--) -- (--) -- 0 0 0 --
05-05-2020 25.3 (17:00) 12.5 (00:00) 18.9 7.78 (00:10) 5.83 (00:50) 0 0 0 0 0
04-05-2020 26.4 (14:30) 16 (00:00) 21.2 15.56 (16:10) 11.11 (21:20) 0 0 0 0 0
03-05-2020 27.5 (17:40) 10.5 (05:40) 19 6.67 (23:59) 5.28 (23:59) 0 0 0 0 0

Gráficas

Temp. máximas Temp. mínimas Temp. medias Precipitaciones Rachas de viento máximas Velocidades máximas media en intervalos de 10 minutos

Datos horarios

Fecha y hora oficial Temperatura (ºC) Velocidad del viento (km/h) Dirección del viento Racha (km/h) Dirección de racha Precipitación (mm) Presión (hPa) Tendencia (hPa) Humedad (%)
2020-06-01 23:00:00 20.8 13 Este 15 Este 0 -- -- 68
2020-06-01 22:00:00 21.6 11 Este 19 Nordeste 0 -- -- 63
2020-06-01 21:00:00 24.1 11 Este 20 Nordeste 0 -- -- 55
2020-06-01 20:00:00 26.2 5 Nordeste 15 Oeste 0 -- -- 49
2020-06-01 19:00:00 26.5 8 Este 22 Este 0 -- -- 47
2020-06-01 18:00:00 25.7 6 Noroeste 19 Sudoeste 0 -- -- 48
2020-06-01 17:00:00 25.5 5 Nordeste 17 Oeste 0 -- -- 48
2020-06-01 16:00:00 25 8 Sudeste 20 Este 0 -- -- 55
2020-06-01 15:00:00 23.4 14 Este 22 Este 0 -- -- 57
2020-06-01 14:00:00 24 12 Este 19 Este 0 -- -- 58
2020-06-01 13:00:00 23.5 7 Oeste 23 Este 0 -- -- 61
2020-06-01 12:00:00 21.4 10 Este 17 Este 0 -- -- 70
2020-06-01 11:00:00 19.4 10 Este 18 Este 0 -- -- 80
2020-06-01 10:00:00 17.3 11 Este 17 Este 0 -- -- 87
2020-06-01 09:00:00 16.3 7 Este 9 Este 0 -- -- 90
2020-06-01 08:00:00 15.2 6 Nordeste 17 Este 0 -- -- 93
2020-06-01 07:00:00 15.2 7 Este 24 Este 0 -- -- 93
2020-06-01 06:00:00 15 14 Este 27 Este 0 -- -- 94
2020-06-01 05:00:00 15.2 19 Este 23 Este 0 -- -- 93
2020-06-01 04:00:00 15.8 13 Este 21 Nordeste 0 -- -- 90
2020-06-01 03:00:00 15.8 8 Este 28 Este 0 -- -- 92
2020-06-01 02:00:00 16.1 24 Este 32 Este 0 -- -- 91
2020-06-01 01:00:00 16.2 18 Este 33 Este 0 -- -- 91
2020-06-01 00:00:00 16.8 25 Este 39 Este 0 -- -- 86
2020-05-31 23:00:00 17 18 Este 25 Este 0 -- -- 82
2020-05-31 22:00:00 16.9 6 Nordeste 13 Noroeste 0 -- -- 81
2020-05-31 21:00:00 17.2 15 Este 38 Este 0 -- -- 83
2020-05-31 20:00:00 18 20 Este 29 Este 0 -- -- 77
2020-05-31 19:00:00 17.6 9 Este 44 Noroeste 0.6 -- -- 79
2020-05-31 18:00:00 18.3 23 Oeste 59 Oeste 0.6 -- -- 83
2020-05-31 17:00:00 26.4 5 Este 23 Este 0 -- -- 45
2020-05-31 16:00:00 27.3 15 Este 32 Este 0 -- -- 42
2020-05-31 15:00:00 28 18 Este 33 Este 0 -- -- 42
2020-05-31 14:00:00 26.6 17 Este 33 Sudeste 0 -- -- 44
2020-05-31 13:00:00 24.7 15 Sudeste 39 Este 0 -- -- 48
2020-05-31 12:00:00 22.8 27 Este 36 Este 0 -- -- 51
2020-05-31 11:00:00 21.5 26 Este 36 Este 0 -- -- 56
2020-05-31 10:00:00 19.1 23 Este 36 Este 0 -- -- 66
2020-05-31 09:00:00 17.3 21 Este 30 Este 0 -- -- 75
2020-05-31 08:00:00 15.9 13 Este 32 Este 0 -- -- 84
2020-05-31 07:00:00 15.1 21 Este 36 Este 0 -- -- 86
2020-05-31 06:00:00 15.1 23 Este 38 Este 0 -- -- 88
2020-05-31 05:00:00 15.3 24 Este 35 Este 0 -- -- 88
2020-05-31 04:00:00 15.5 25 Este 45 Este 0 -- -- 86
2020-05-31 03:00:00 -- 30 Este 41 Este 0 -- -- --
2020-05-31 02:00:00 16.6 30 Este 42 Este 0 -- -- 83
2020-05-31 01:00:00 17.7 30 Este 40 Este 0 -- -- 79
2020-05-31 00:00:00 20 24 Este 33 Este 0 -- -- 69
2020-05-30 23:00:00 21.2 15 Este 24 Este 0 -- -- 64
2020-05-30 22:00:00 23 12 Este 24 Este 0 -- -- 55
2020-05-30 21:00:00 25.7 18 Este 26 Este 0 -- -- 45
2020-05-30 20:00:00 27.6 12 Este 22 Este 0 -- -- 39
2020-05-30 19:00:00 28.4 10 Este 24 Este 0 -- -- 37
2020-05-30 18:00:00 29.5 5 Oeste 21 Oeste 0 -- -- 34
2020-05-30 17:00:00 28.3 8 Este 20 Sudeste 0 -- -- 37
2020-05-30 16:00:00 27.9 12 Sudeste 27 Este 0 -- -- 38
2020-05-30 15:00:00 26.8 6 Este 21 Este 0 -- -- 39
2020-05-30 14:00:00 25.6 7 Nordeste 22 Este 0 -- -- 42
2020-05-30 13:00:00 24.2 11 Este 24 Sudeste 0 -- -- 48
2020-05-30 12:00:00 23.1 11 Este 27 Este 0 -- -- 53
2020-05-30 11:00:00 21.4 17 Este 25 Este 0 -- -- 56
2020-05-30 10:00:00 19.8 15 Este 27 Este 0 -- -- 59
2020-05-30 09:00:00 18.4 9 Este 19 Este 0 -- -- 60
2020-05-30 08:00:00 16.5 9 Este 14 Este 0 -- -- 63
2020-05-30 07:00:00 14.8 8 Nordeste 17 Este 0 -- -- 66
2020-05-30 06:00:00 14.3 10 Nordeste 21 Este 0 -- -- 70
2020-05-30 05:00:00 14.9 15 Este 26 Este 0 -- -- 71
2020-05-30 04:00:00 15.4 21 Este 32 Este 0 -- -- 70
2020-05-30 03:00:00 15.7 21 Este 31 Nordeste 0 -- -- 70
2020-05-30 02:00:00 16 23 Este 36 Este 0 -- -- 70
2020-05-30 01:00:00 16.7 28 Este 48 Este 0 -- -- 68
2020-05-30 00:00:00 17.7 29 Este 50 Este 0 -- -- 67
2020-05-29 23:00:00 20.2 31 Este 46 Este 0 -- -- 61
2020-05-29 22:00:00 23.7 9 Noroeste 17 Norte 0 -- -- 41
2020-05-29 21:00:00 -- 10 Noroeste 30 Oeste 0 -- -- --
2020-05-29 20:00:00 27.9 18 Oeste 27 Oeste 0 -- -- 34
2020-05-29 19:00:00 28.3 19 Oeste 28 Oeste 0 -- -- 30
2020-05-29 18:00:00 28.7 12 Oeste 35 Oeste 0 -- -- 31
2020-05-29 17:00:00 28.5 16 Oeste 36 Oeste 0 -- -- 28
2020-05-29 16:00:00 28.4 18 Oeste 27 Oeste 0 -- -- 28
2020-05-29 15:00:00 27.8 12 Oeste 29 Oeste 0 -- -- 32
2020-05-29 14:00:00 26.6 12 Oeste 24 Sudoeste 0 -- -- 42
2020-05-29 13:00:00 25 13 Oeste 21 Oeste 0 -- -- 49
2020-05-29 12:00:00 23.3 10 Oeste 21 Sudoeste 0 -- -- 58
2020-05-29 11:00:00 22.1 13 Oeste 18 Oeste 0 -- -- 61
2020-05-29 10:00:00 20.2 8 Oeste 12 Sudoeste 0 -- -- 66
2020-05-29 09:00:00 18.6 5 Oeste 12 Este 0 -- -- 72
2020-05-29 08:00:00 17 7 Este 15 Este 0 -- -- 75
2020-05-29 07:00:00 15.6 10 Este 15 Nordeste 0 -- -- 80
2020-05-29 06:00:00 15.8 12 Nordeste 17 Nordeste 0 -- -- 75
2020-05-29 05:00:00 16.6 13 Este 18 Nordeste 0 -- -- 75
2020-05-29 04:00:00 17.1 10 Nordeste 18 Nordeste 0 -- -- 70
2020-05-29 03:00:00 17.3 15 Este 24 Este 0 -- -- 66
2020-05-29 02:00:00 18.9 15 Este 19 Este 0 -- -- 55
2020-05-29 01:00:00 19.1 10 Nordeste 15 Este 0 -- -- 53
2020-05-29 00:00:00 19.5 8 Este 15 Nordeste 0 -- -- 47
2020-05-28 23:00:00 18.8 12 Nordeste 14 Nordeste 0 -- -- 45
2020-05-28 22:00:00 21.6 9 Nordeste 13 Este 0 -- -- 40
2020-05-28 21:00:00 25.5 7 Noroeste 15 Oeste 0 -- -- 30
2020-05-28 20:00:00 27.1 10 Noroeste 17 Noroeste 0 -- -- 28
2020-05-28 19:00:00 28.1 7 Sudeste 17 Sudoeste 0 -- -- 29
2020-05-28 18:00:00 28.2 8 Sur 18 Sur 0 -- -- 29
2020-05-28 17:00:00 28.3 8 Sudoeste 21 Sudoeste 0 -- -- 28
2020-05-28 16:00:00 27.9 9 Sur 22 Sur 0 -- -- 29
2020-05-28 15:00:00 27.1 8 Sudoeste 21 Sur 0 -- -- 30
2020-05-28 14:00:00 26.3 9 Sudeste 23 Sudeste 0 -- -- 32
2020-05-28 13:00:00 25.3 9 Sur 23 Este 0 -- -- 36
2020-05-28 12:00:00 23.9 7 Sudeste 22 Sudeste 0 -- -- 41
2020-05-28 11:00:00 22.5 13 Este 25 Este 0 -- -- 46
2020-05-28 10:00:00 21.2 14 Este 27 Este 0 -- -- 49
2020-05-28 09:00:00 19.1 15 Este 23 Este 0 -- -- 52
2020-05-28 08:00:00 17 15 Este 28 Este 0 -- -- 56
2020-05-28 07:00:00 15.3 21 Este 26 Este 0 -- -- 62
2020-05-28 06:00:00 16.1 21 Este 28 Este 0 -- -- 60
2020-05-28 05:00:00 16.5 21 Este 30 Este 0 -- -- 58
2020-05-28 04:00:00 17.2 26 Este 33 Este 0 -- -- 57
2020-05-28 03:00:00 17.5 20 Este 29 Este 0 -- -- 56
2020-05-28 02:00:00 18 23 Este 30 Este 0 -- -- 55
2020-05-28 01:00:00 19.2 12 Este 29 Este 0 -- -- 46
2020-05-28 00:00:00 19.6 20 Este 27 Este 0 -- -- 45
2020-05-27 23:00:00 20.5 21 Este 35 Sudeste 0 -- -- 44
2020-05-27 22:00:00 21.6 13 Este 28 Sudeste 0 -- -- 46
2020-05-27 21:00:00 24 9 Sudeste 26 Sudeste 0 -- -- 42
2020-05-27 20:00:00 25.7 10 Sudeste 26 Este 0 -- -- 40
2020-05-27 19:00:00 26.8 10 Sur 22 Sur 0 -- -- 43
2020-05-27 18:00:00 27.6 11 Sudeste 24 Sur 0 -- -- 36
2020-05-27 17:00:00 27.5 13 Sudeste 42 Sudeste 0 -- -- 38
2020-05-27 16:00:00 27.2 12 Sudeste 28 Sudeste 0 -- -- 40
2020-05-27 15:00:00 26.5 10 Sur 22 Sudeste 0 -- -- 41
2020-05-27 14:00:00 26.3 13 Sudeste 28 Sudeste 0 -- -- 44
2020-05-27 13:00:00 25.7 10 Sudeste 24 Sudeste 0 -- -- 47
2020-05-27 12:00:00 23.2 9 Oeste 18 Sudoeste 0 -- -- 62
2020-05-27 11:00:00 21.6 10 Sudoeste 19 Sudoeste 0 -- -- 65
2020-05-27 10:00:00 19 6 Oeste 12 Oeste 0 -- -- 71
2020-05-27 09:00:00 17 4 Noroeste 7 Oeste 0 -- -- 77
2020-05-27 08:00:00 15.2 4 Este 9 Nordeste 0 -- -- 85
2020-05-27 07:00:00 13.8 4 Nordeste 8 Nordeste 0 -- -- 88
2020-05-27 06:00:00 14.4 3 Este 6 Nordeste 0 -- -- 86
2020-05-27 05:00:00 14.6 3 Nordeste 7 Noroeste 0 -- -- 85
2020-05-27 04:00:00 15.4 4 Norte 7 Este 0 -- -- 82
2020-05-27 03:00:00 15.3 5 Este 7 Este 0 -- -- 86
2020-05-27 02:00:00 15.9 0 Calma 8 Oeste 0 -- -- 83
2020-05-27 01:00:00 16.6 7 Oeste 13 Oeste 0 -- -- 83
2020-05-27 00:00:00 17.7 5 Oeste 10 Este 0 -- -- 74
2020-05-26 23:00:00 19.1 8 Nordeste 11 Noroeste 0 -- -- 69
2020-05-26 22:00:00 22 7 Noroeste 11 Noroeste 0 -- -- 59
2020-05-26 21:00:00 22.9 9 Oeste 20 Oeste 0 -- -- 61
2020-05-26 20:00:00 24.7 15 Oeste 23 Oeste 0 -- -- 55
2020-05-26 19:00:00 25.3 16 Oeste 26 Oeste 0 -- -- 53
2020-05-26 18:00:00 25.5 19 Oeste 26 Oeste 0 -- -- 53
2020-05-26 17:00:00 25.5 14 Oeste 27 Oeste 0 -- -- 51
2020-05-26 16:00:00 24.7 14 Oeste 28 Oeste 0 -- -- 53
2020-05-26 15:00:00 23.8 15 Oeste 24 Oeste 0 -- -- 58
2020-05-26 14:00:00 22.9 12 Oeste 25 Oeste 0 -- -- 60
2020-05-26 13:00:00 21.5 12 Oeste 21 Oeste 0 -- -- 66
2020-05-26 12:00:00 19.6 11 Oeste 20 Oeste 0 -- -- 68
2020-05-26 11:00:00 17.4 15 Oeste 25 Oeste 0 -- -- 69
2020-05-26 10:00:00 15.9 9 Oeste 21 Oeste 0 -- -- 77
2020-05-26 09:00:00 13.8 12 Oeste 16 Oeste 0 -- -- 86
2020-05-26 08:00:00 13 8 Sudoeste 10 Sudoeste 0 -- -- 87
2020-05-26 07:00:00 12.4 3 Oeste 12 Oeste 0 -- -- 88
2020-05-26 06:00:00 12.8 9 Oeste 14 Oeste 0 -- -- 85
2020-05-26 05:00:00 13.8 3 Oeste 12 Noroeste 0 -- -- 78
2020-05-26 04:00:00 14.6 6 Noroeste 18 Noroeste 0 -- -- 77
2020-05-26 03:00:00 15.5 10 Noroeste 19 Noroeste 0 -- -- 71
2020-05-26 02:00:00 16 9 Sudoeste 19 Noroeste 0 -- -- 74
2020-05-26 01:00:00 16.8 8 Noroeste 17 Oeste 0 -- -- 75
2020-05-26 00:00:00 18.1 5 Oeste 14 Oeste 0 -- -- 87
2020-05-25 23:00:00 18.6 2 Sudoeste 9 Oeste 0 -- -- 84
2020-05-25 22:00:00 19.2 7 Oeste 10 Oeste 0 -- -- 82
2020-05-25 21:00:00 19.4 8 Oeste 18 Oeste 0 -- -- 82
2020-05-25 20:00:00 20.4 16 Oeste 21 Oeste 0 -- -- 80
2020-05-25 19:00:00 22.3 6 Noroeste 11 Oeste 0 -- -- 65
2020-05-25 18:00:00 23 7 Noroeste 14 Oeste 0 -- -- 66
2020-05-25 17:00:00 22 7 Oeste 20 Oeste 0 -- -- 71
2020-05-25 16:00:00 21.5 8 Sudoeste 18 Oeste 0 -- -- 70
2020-05-25 15:00:00 -- -- -- -- -- -- -- -- --
2020-05-25 14:00:00 20 11 Oeste 15 Oeste 0 -- -- 75
2020-05-25 13:00:00 19.7 4 Nordeste 15 Oeste 0 -- -- 76
2020-05-25 12:00:00 18.6 3 Sur 9 Nordeste 0 -- -- 78
2020-05-25 11:00:00 16.5 8 Oeste 12 Oeste 0 -- -- 78
2020-05-25 10:00:00 -- 8 Oeste 14 Oeste 0 -- -- --
2020-05-25 09:00:00 16.6 3 Este 8 Este 0 -- -- 85
2020-05-25 08:00:00 15.3 3 Oeste 7 Sudoeste 0 -- -- 85
2020-05-25 07:00:00 14.9 0 Calma 4 Sudoeste 0 -- -- 86
2020-05-25 06:00:00 15.1 5 Noroeste 6 Oeste 0 -- -- 83
2020-05-25 05:00:00 15.8 0 Calma 5 Sudeste 0 -- -- 80
2020-05-25 04:00:00 16 2 Este 5 Este 0 -- -- 83
2020-05-25 03:00:00 16.4 0 Calma 4 Este 0 -- -- 81
2020-05-25 02:00:00 16.5 5 Noroeste 10 Nordeste 0 -- -- 80
2020-05-25 01:00:00 17.3 9 Nordeste 11 Nordeste 0 -- -- 76
2020-05-25 00:00:00 18.2 7 Nordeste 11 Nordeste 0 -- -- 71
2020-05-24 23:00:00 18 7 Nordeste 11 Nordeste 0 -- -- 73
2020-05-24 22:00:00 19.8 2 Este 10 Oeste 0 -- -- 67
2020-05-24 21:00:00 20.8 9 Oeste 15 Oeste 0 -- -- 63
2020-05-24 20:00:00 23.5 9 Oeste 19 Oeste 0 -- -- 54
2020-05-24 19:00:00 23.4 13 Oeste 19 Noroeste 0 -- -- 55
2020-05-24 18:00:00 24.6 12 Sudoeste 22 Oeste 0 -- -- 50
2020-05-24 17:00:00 24.6 5 Sur 14 Sudeste 0 -- -- 47
2020-05-24 16:00:00 23.1 7 Oeste 19 Oeste 0 -- -- 52
2020-05-24 15:00:00 22 10 Oeste 23 Sudoeste 0 -- -- 53
2020-05-24 14:00:00 20.8 10 Oeste 20 Oeste 0 -- -- 58
2020-05-24 13:00:00 19.2 5 Sur 14 Oeste 0 -- -- 60
2020-05-24 12:00:00 16.2 8 Sudoeste 20 Sudoeste 0 -- -- 66
2020-05-24 11:00:00 14.4 12 Oeste 18 Oeste 0 -- -- 72
2020-05-24 10:00:00 12.4 9 Oeste 17 Oeste 0 -- -- 76
2020-05-24 09:00:00 10.8 14 Oeste 18 Oeste 0 -- -- 81
2020-05-24 08:00:00 10.3 6 Oeste 12 Oeste 0 -- -- 85
2020-05-24 07:00:00 9.5 5 Oeste 12 Oeste 0 -- -- 87
2020-05-24 06:00:00 10 8 Oeste 30 Oeste 0 -- -- 83
2020-05-24 05:00:00 10.7 18 Oeste 36 Noroeste 0 -- -- 79
2020-05-24 04:00:00 11 18 Oeste 41 Oeste 0 -- -- 78
2020-05-24 03:00:00 10.8 19 Oeste 40 Oeste 0 -- -- 79
2020-05-24 02:00:00 11 21 Oeste 36 Oeste 0 -- -- 80
2020-05-24 01:00:00 11.5 22 Oeste 41 Oeste 0 -- -- 80
2020-05-24 00:00:00 12.1 23 Oeste 45 Noroeste 0 -- -- 80
2020-05-23 23:00:00 12.8 21 Oeste 42 Oeste 0 -- -- 79
2020-05-23 22:00:00 13.4 23 Oeste 42 Oeste 0 -- -- 78
2020-05-23 21:00:00 16.3 23 Oeste 39 Noroeste 0 -- -- 68
2020-05-23 20:00:00 18.5 28 Oeste 45 Oeste 0 -- -- 62
2020-05-23 19:00:00 20.2 31 Oeste 55 Oeste 0 -- -- 58
2020-05-23 18:00:00 21.9 30 Oeste 45 Oeste 0 -- -- 54
2020-05-23 17:00:00 22.8 30 Oeste 45 Oeste 0 -- -- 53
2020-05-23 16:00:00 22.9 33 Oeste 49 Oeste 0 -- -- 55
2020-05-23 15:00:00 22.8 31 Oeste 48 Oeste 0 -- -- 58
2020-05-23 14:00:00 22.9 28 Oeste 45 Oeste 0 -- -- 60
2020-05-23 13:00:00 21.9 26 Oeste 53 Oeste 0 -- -- 64
2020-05-23 12:00:00 21.2 24 Oeste 36 Oeste 0 -- -- 66
2020-05-23 11:00:00 19.5 21 Oeste 33 Oeste 0 -- -- 72
2020-05-23 10:00:00 17.9 19 Oeste 26 Oeste 0 -- -- 78
2020-05-23 09:00:00 15.8 14 Oeste 20 Oeste 0 -- -- 85
2020-05-23 08:00:00 15.4 11 Oeste 17 Oeste 0 -- -- 87
2020-05-23 07:00:00 14.6 6 Oeste 12 Oeste 0 -- -- 91
2020-05-23 06:00:00 15.8 5 Oeste 17 Oeste 0 -- -- 87
2020-05-23 05:00:00 17.5 2 Este 13 Oeste 0 -- -- 74
2020-05-23 04:00:00 18.8 5 Este 20 Este 0 -- -- 69
2020-05-23 03:00:00 19.5 8 Oeste 40 Este 0 -- -- 68
2020-05-23 02:00:00 20 31 Este 41 Este 0 -- -- 66
2020-05-23 01:00:00 21.6 26 Este 33 Este 0 -- -- 59
2020-05-23 00:00:00 23.5 22 Este 29 Este 0 -- -- 46
2020-05-22 23:00:00 23.9 17 Este 24 Sudeste 0 -- -- 43
2020-05-22 22:00:00 25.3 16 Este 29 Este 0 -- -- 52
2020-05-22 21:00:00 27.5 21 Este 32 Este 0 -- -- 46
2020-05-22 20:00:00 29.9 18 Este 28 Este 0 -- -- 41
2020-05-22 19:00:00 31.2 6 Sudeste 17 Este 0 -- -- 27
2020-05-22 18:00:00 31.3 5 Este 23 Sudeste 0 -- -- 32
2020-05-22 17:00:00 31.3 12 Este 24 Este 0 -- -- 31
2020-05-22 16:00:00 30.8 7 Sudoeste 18 Oeste 0 -- -- 43
2020-05-22 15:00:00 30.2 5 Sudeste 19 Sudoeste 0 -- -- 41
2020-05-22 14:00:00 28.7 9 Oeste 18 Oeste 0 -- -- 47
2020-05-22 13:00:00 28.4 5 Sudoeste 13 Sudoeste 0 -- -- 50
2020-05-22 12:00:00 25.2 7 Oeste 17 Oeste 0 -- -- 59
2020-05-22 11:00:00 23.2 12 Oeste 22 Oeste 0 -- -- 61
2020-05-22 10:00:00 24.2 6 Sudoeste 16 Oeste 0 -- -- 58
2020-05-22 09:00:00 21.4 6 Este 10 Nordeste 0 -- -- 66
2020-05-22 08:00:00 16.6 6 Este 11 Nordeste 0 -- -- 76
2020-05-22 07:00:00 17 7 Nordeste 10 Nordeste 0 -- -- 68
2020-05-22 06:00:00 18.7 8 Nordeste 21 Este 0 -- -- 62
2020-05-22 05:00:00 19.1 16 Nordeste 23 Nordeste 0 -- -- 58
2020-05-22 04:00:00 18.4 13 Nordeste 17 Nordeste 0 -- -- 62
2020-05-22 03:00:00 18.8 14 Nordeste 17 Nordeste 0 -- -- 59
2020-05-22 02:00:00 18.1 14 Nordeste 17 Nordeste 0 -- -- 57
2020-05-22 01:00:00 18.2 11 Nordeste 16 Nordeste 0 -- -- 52
2020-05-22 00:00:00 19.8 12 Nordeste 18 Nordeste 0 -- -- 44
2020-05-21 23:00:00 19.7 12 Nordeste 15 Nordeste 0 -- -- 48
2020-05-21 22:00:00 20.9 12 Nordeste 14 Nordeste 0 -- -- 46
2020-05-21 21:00:00 26.2 0 Calma 9 Sudoeste 0 -- -- 37
2020-05-21 20:00:00 29.3 4 Oeste 15 Sudeste 0 -- -- 34
2020-05-21 19:00:00 29.5 6 Oeste 22 Oeste 0 -- -- 29
2020-05-21 18:00:00 29 15 Oeste 23 Sudoeste 0 -- -- 30
2020-05-21 17:00:00 28.8 7 Sur 17 Oeste 0 -- -- 36
2020-05-21 16:00:00 28 3 Sudoeste 21 Oeste 0 -- -- 44
2020-05-21 15:00:00 26.1 10 Sudoeste 22 Sudoeste 0 -- -- 49
2020-05-21 14:00:00 24.4 14 Oeste 22 Sudoeste 0 -- -- 54
2020-05-21 13:00:00 23.1 11 Oeste 18 Oeste 0 -- -- 57
2020-05-21 12:00:00 21.2 7 Oeste 15 Oeste 0 -- -- 61
2020-05-21 11:00:00 18.6 12 Oeste 19 Oeste 0 -- -- 64
2020-05-21 10:00:00 16.8 9 Oeste 12 Oeste 0 -- -- 65
2020-05-21 09:00:00 15.7 7 Oeste 15 Noroeste 0 -- -- 72
2020-05-21 08:00:00 14 3 Noroeste 6 Noroeste 0 -- -- 73
2020-05-21 07:00:00 13.1 3 Este 5 Este 0 -- -- 71
2020-05-21 06:00:00 12.9 2 Este 8 Este 0 -- -- 73
2020-05-21 05:00:00 14 3 Nordeste 8 Norte 0 -- -- 70
2020-05-21 04:00:00 14 3 Este 7 Este 0 -- -- 77
2020-05-21 03:00:00 14.2 5 Este 8 Este 0 -- -- 82
2020-05-21 02:00:00 15.3 2 Noroeste 8 Noroeste 0 -- -- 77
2020-05-21 01:00:00 16.5 4 Oeste 8 Oeste 0 -- -- 72
2020-05-21 00:00:00 18.1 5 Oeste 8 Oeste 0 -- -- 66
2020-05-20 23:00:00 19.3 4 Este 8 Este 0 -- -- 55
2020-05-20 22:00:00 21.9 5 Sudeste 17 Noroeste 0 -- -- 47
2020-05-20 21:00:00 24.8 8 Oeste 17 Oeste 0 -- -- 41
2020-05-20 20:00:00 26.5 12 Oeste 19 Oeste 0 -- -- 35
2020-05-20 19:00:00 27.2 12 Oeste 24 Oeste 0 -- -- 32
2020-05-20 18:00:00 27.2 14 Oeste 23 Oeste 0 -- -- 34
2020-05-20 17:00:00 27 14 Oeste 23 Oeste 0 -- -- 37
2020-05-20 16:00:00 26.9 14 Oeste 24 Sudoeste 0 -- -- 39
2020-05-20 15:00:00 26 13 Oeste 20 Sudoeste 0 -- -- 42
2020-05-20 14:00:00 24 13 Oeste 19 Sudoeste 0 -- -- 51
2020-05-20 13:00:00 22 13 Sudoeste 21 Oeste 0 -- -- 57
2020-05-20 12:00:00 20.1 15 Oeste 21 Oeste 0 -- -- 59
2020-05-20 11:00:00 18.6 14 Oeste 20 Sudoeste 0 -- -- 63
2020-05-20 10:00:00 16.2 12 Oeste 16 Sudoeste 0 -- -- 71
2020-05-20 09:00:00 14.3 5 Oeste 8 Sudoeste 0 -- -- 79
2020-05-20 08:00:00 13.1 0 Calma 6 Este 0 -- -- 82
2020-05-20 07:00:00 11.7 4 Este 5 Este 0 -- -- 85
2020-05-20 06:00:00 12 4 Este 7 Este 0 -- -- 85
2020-05-20 05:00:00 11.7 5 Este 8 Nordeste 0 -- -- 88
2020-05-20 04:00:00 11.9 2 Nordeste 6 Este 0 -- -- 86
2020-05-20 03:00:00 12.6 4 Este 6 Noroeste 0 -- -- 85
2020-05-20 02:00:00 13.4 4 Oeste 12 Noroeste 0 -- -- 83
2020-05-20 01:00:00 14.4 9 Noroeste 13 Oeste 0 -- -- 81
2020-05-20 00:00:00 15.7 9 Oeste 20 Oeste 0 -- -- 75
2020-05-19 23:00:00 15.7 9 Oeste 23 Oeste 0 -- -- 78
2020-05-19 22:00:00 18.6 18 Oeste 31 Oeste 0 -- -- 66
2020-05-19 21:00:00 20.4 16 Noroeste 30 Oeste 0 -- -- 62
2020-05-19 20:00:00 22.8 21 Oeste 39 Oeste 0 -- -- 53
2020-05-19 19:00:00 24.4 24 Oeste 37 Oeste 0 -- -- 47
2020-05-19 18:00:00 25.2 28 Oeste 40 Oeste 0 -- -- 47
2020-05-19 17:00:00 25.5 23 Oeste 39 Oeste 0 -- -- 42
2020-05-19 16:00:00 25.1 26 Oeste 37 Oeste 0 -- -- 47
2020-05-19 15:00:00 24 25 Oeste 35 Oeste 0 -- -- 46
2020-05-19 14:00:00 22.8 24 Oeste 35 Oeste 0 -- -- 48
2020-05-19 13:00:00 20.6 21 Oeste 33 Oeste 0 -- -- 52
2020-05-19 12:00:00 19.3 22 Oeste 33 Oeste 0 -- -- 59
2020-05-19 11:00:00 17 19 Oeste 32 Oeste 0 -- -- 66
2020-05-19 10:00:00 15 22 Oeste 33 Oeste 0 -- -- 71
2020-05-19 09:00:00 13.5 19 Oeste 29 Oeste 0 -- -- 75
2020-05-19 08:00:00 11.5 15 Oeste 25 Oeste 0 -- -- 79
2020-05-19 07:00:00 10.7 15 Oeste 22 Oeste 0 -- -- 81
2020-05-19 06:00:00 10 5 Oeste 16 Oeste 0 -- -- 82
2020-05-19 05:00:00 9.9 4 Oeste 10 Oeste 0 -- -- 84
2020-05-19 04:00:00 10 0 Calma 18 Noroeste 0 -- -- 84
2020-05-19 03:00:00 11.3 13 Oeste 21 Oeste 0 -- -- 78
2020-05-19 02:00:00 11.8 15 Oeste 23 Oeste 0 -- -- 77
2020-05-19 01:00:00 11.4 12 Oeste 22 Oeste 0 -- -- 82
2020-05-19 00:00:00 12.3 9 Oeste 23 Oeste 0 -- -- 82
2020-05-18 23:00:00 13.3 10 Oeste 36 Oeste 0 -- -- 80
2020-05-18 22:00:00 15.6 23 Oeste 34 Oeste 0 -- -- 71
2020-05-18 21:00:00 17.8 22 Oeste 35 Oeste 0 -- -- 64
2020-05-18 20:00:00 20.8 22 Oeste 37 Oeste 0 -- -- 52
2020-05-18 19:00:00 22.4 23 Oeste 41 Oeste 0 -- -- 46
2020-05-18 18:00:00 22.8 27 Oeste 40 Oeste 0 -- -- 47
2020-05-18 17:00:00 23.2 28 Oeste 40 Oeste 0 -- -- 46
2020-05-18 16:00:00 23.2 21 Oeste 34 Oeste 0 -- -- 41
2020-05-18 15:00:00 22.3 21 Oeste 30 Oeste 0 -- -- 46
2020-05-18 14:00:00 20.7 21 Oeste 31 Oeste 0 -- -- 51
2020-05-18 13:00:00 19 17 Oeste 31 Oeste 0 -- -- 55
2020-05-18 12:00:00 17.5 17 Oeste 26 Oeste 0 -- -- 54
2020-05-18 11:00:00 15.8 18 Oeste 25 Oeste 0 -- -- 65
2020-05-18 10:00:00 13.4 14 Oeste 27 Oeste 0 -- -- 70
2020-05-18 09:00:00 11.4 18 Oeste 24 Oeste 0 -- -- 74
2020-05-18 08:00:00 9.5 13 Oeste 20 Oeste 0 -- -- 81
2020-05-18 07:00:00 8.7 6 Oeste 18 Oeste 0 -- -- 83
2020-05-18 06:00:00 8.8 4 Oeste 12 Oeste 0 -- -- 81
2020-05-18 05:00:00 8.9 7 Oeste 16 Oeste 0 -- -- 81
2020-05-18 04:00:00 9.2 7 Oeste 14 Oeste 0 -- -- 82
2020-05-18 03:00:00 9.3 8 Oeste 19 Oeste 0 -- -- 84
2020-05-18 02:00:00 10.2 10 Oeste 25 Noroeste 0 -- -- 82
2020-05-18 01:00:00 11.3 18 Oeste 30 Oeste 0 -- -- 79
2020-05-18 00:00:00 11.5 17 Oeste 28 Oeste 0 -- -- 81
2020-05-17 23:00:00 13.5 20 Oeste 33 Noroeste 0 -- -- 73
2020-05-17 22:00:00 14.9 19 Oeste 36 Oeste 0 -- -- 68
2020-05-17 21:00:00 16.8 20 Oeste 33 Noroeste 0 -- -- 63
2020-05-17 20:00:00 18.7 24 Oeste 42 Noroeste 0 -- -- 56
2020-05-17 19:00:00 20.1 22 Noroeste 39 Noroeste 0 -- -- 46
2020-05-17 18:00:00 20.7 20 Oeste 36 Noroeste 0 -- -- 45
2020-05-17 17:00:00 20.3 26 Oeste 38 Oeste 0 -- -- 49
2020-05-17 16:00:00 19.9 23 Oeste 31 Oeste 0 -- -- 47
2020-05-17 15:00:00 19.2 22 Oeste 34 Oeste 0 -- -- 54
2020-05-17 14:00:00 18.3 23 Oeste 39 Oeste 0 -- -- 57
2020-05-17 13:00:00 17.1 22 Oeste 33 Oeste 0 -- -- 61
2020-05-17 12:00:00 15.8 23 Oeste 34 Oeste 0 -- -- 63
2020-05-17 11:00:00 13.5 22 Oeste 33 Noroeste 0 -- -- 71
2020-05-17 10:00:00 11.6 23 Oeste 33 Oeste 0 -- -- 74
2020-05-17 09:00:00 10.2 19 Oeste 29 Oeste 0 -- -- 78
2020-05-17 08:00:00 8.3 14 Oeste 28 Oeste 0 -- -- 86
2020-05-17 07:00:00 7.7 14 Oeste 26 Oeste 0 -- -- 87
2020-05-17 06:00:00 7.9 12 Oeste 23 Oeste 0 -- -- 87
2020-05-17 05:00:00 8.2 13 Oeste 24 Oeste 0 -- -- 88
2020-05-17 04:00:00 8.4 14 Oeste 23 Oeste 0 -- -- 88
2020-05-17 03:00:00 8.4 13 Oeste 20 Oeste 0 -- -- 90
2020-05-17 02:00:00 8.4 13 Oeste 21 Oeste 0 -- -- 91
2020-05-17 01:00:00 9.4 14 Oeste 23 Oeste 0 -- -- 88
2020-05-17 00:00:00 10.7 15 Oeste 30 Oeste 0 -- -- 83
2020-05-16 23:00:00 11.2 16 Oeste 38 Noroeste 0 -- -- 80
2020-05-16 22:00:00 12.8 22 Noroeste 40 Noroeste 0 -- -- 72
2020-05-16 21:00:00 14.5 18 Noroeste 39 Noroeste 0 -- -- 66
2020-05-16 20:00:00 17.1 16 Noroeste 51 Oeste 0 -- -- 55
2020-05-16 19:00:00 17.8 26 Oeste 49 Oeste 0 -- -- 56
2020-05-16 18:00:00 18.5 32 Oeste 51 Oeste 0 -- -- 57
2020-05-16 17:00:00 18.5 22 Oeste 45 Oeste 0 -- -- 60
2020-05-16 16:00:00 17.3 29 Oeste 49 Oeste 0 -- -- 65
2020-05-16 15:00:00 16.8 24 Oeste 43 Noroeste 0 -- -- 67
2020-05-16 14:00:00 16.4 24 Oeste 41 Oeste 0 -- -- 69
2020-05-16 13:00:00 14.8 19 Oeste 30 Oeste 0 -- -- 79
2020-05-16 12:00:00 12.6 14 Oeste 23 Oeste 0 -- -- 84
2020-05-16 11:00:00 11.2 16 Oeste 21 Oeste 0 -- -- 89
2020-05-16 10:00:00 10.1 12 Oeste 22 Oeste 0 -- -- 91
2020-05-16 09:00:00 9.2 14 Oeste 24 Oeste 0 -- -- 93
2020-05-16 08:00:00 8.7 10 Oeste 23 Oeste 0 -- -- 95
2020-05-16 07:00:00 8.6 15 Oeste 25 Oeste 0 -- -- 94
2020-05-16 06:00:00 8.7 14 Oeste 23 Oeste 0 -- -- 92
2020-05-16 05:00:00 8.8 18 Oeste 25 Oeste 0 -- -- 93
2020-05-16 04:00:00 8.9 14 Oeste 24 Oeste 0 -- -- 91
2020-05-16 03:00:00 8.7 12 Oeste 22 Oeste 0.2 -- -- 91
2020-05-16 02:00:00 9.1 14 Oeste 25 Oeste 0 -- -- 87
2020-05-16 01:00:00 9.3 15 Oeste 29 Oeste 0 -- -- 87
2020-05-16 00:00:00 9.5 17 Oeste 27 Oeste 0 -- -- 91
2020-05-15 23:00:00 9.8 14 Oeste 26 Oeste 0 -- -- 94
2020-05-15 22:00:00 10.9 13 Oeste 23 Oeste 0 -- -- 92
2020-05-15 21:00:00 11.9 8 Noroeste 22 Noroeste 0 -- -- 87
2020-05-15 20:00:00 12.8 10 Oeste 26 Oeste 0 -- -- 85
2020-05-15 19:00:00 13.4 18 Oeste 28 Noroeste 0 -- -- 82
2020-05-15 18:00:00 14.6 16 Oeste 30 Oeste 0 -- -- 78
2020-05-15 17:00:00 14.8 15 Noroeste 31 Oeste 0 -- -- 79
2020-05-15 16:00:00 14.4 19 Oeste 27 Oeste 0 -- -- 79
2020-05-15 15:00:00 13.7 17 Oeste 29 Oeste 0 -- -- 82
2020-05-15 14:00:00 13.3 20 Oeste 29 Oeste 0 -- -- 88
2020-05-15 13:00:00 11.9 16 Oeste 27 Oeste 0 -- -- 93
2020-05-15 12:00:00 11.2 15 Oeste 28 Oeste 0.4 -- -- 95
2020-05-15 11:00:00 10.8 16 Oeste 31 Oeste 0.4 -- -- 95
2020-05-15 10:00:00 10.3 15 Oeste 24 Noroeste 0.2 -- -- 94
2020-05-15 09:00:00 9.8 15 Oeste 24 Oeste 0 -- -- 97
2020-05-15 08:00:00 9.3 14 Oeste 21 Oeste 0.4 -- -- 98
2020-05-15 07:00:00 9.5 12 Oeste 21 Oeste 0.4 -- -- 98
2020-05-15 06:00:00 9.6 14 Oeste 23 Oeste 0.2 -- -- 98
2020-05-15 05:00:00 9.7 15 Oeste 24 Oeste 0.2 -- -- 98
2020-05-15 04:00:00 9.9 15 Oeste 24 Oeste 0.4 -- -- 97
2020-05-15 03:00:00 10 15 Oeste 26 Oeste 0.2 -- -- 96
2020-05-15 02:00:00 10.2 12 Oeste 28 Noroeste 0.2 -- -- 94
2020-05-15 01:00:00 10.6 17 Noroeste 28 Noroeste 0.2 -- -- 94
2020-05-15 00:00:00 11.2 6 Oeste 11 Noroeste 0.2 -- -- 97
2020-05-14 23:00:00 11.1 6 Noroeste 13 Oeste 0 -- -- 97
2020-05-14 22:00:00 11.3 8 Oeste 14 Noroeste 0.6 -- -- 96
2020-05-14 21:00:00 11.8 5 Oeste 10 Sudeste 0.2 -- -- 93
2020-05-14 20:00:00 12.4 0 Calma 10 Este 0.6 -- -- 92
2020-05-14 19:00:00 12.8 9 Este 12 Este 0.4 -- -- 90
2020-05-14 18:00:00 12.7 4 Este 8 Este 0.4 -- -- 89
2020-05-14 17:00:00 12 4 Oeste 25 Este 1.4 -- -- 92
2020-05-14 16:00:00 -- 23 Este 30 Este 3.6 -- -- --
2020-05-14 15:00:00 15.3 13 Oeste 24 Oeste 0 -- -- 81
2020-05-14 14:00:00 15.6 15 Oeste 21 Oeste 0 -- -- 81
2020-05-14 13:00:00 13.6 11 Oeste 18 Oeste 0 -- -- 89
2020-05-14 12:00:00 13.8 12 Oeste 17 Oeste 0 -- -- 90
2020-05-14 11:00:00 12.6 10 Oeste 14 Oeste 0 -- -- 91
2020-05-14 10:00:00 12.2 9 Oeste 13 Oeste 0 -- -- 92
2020-05-14 09:00:00 11.9 8 Oeste 13 Oeste 0 -- -- 92
2020-05-14 08:00:00 10.9 6 Este 8 Este 0 -- -- 92
2020-05-14 07:00:00 10.2 4 Este 11 Nordeste 0 -- -- 91
2020-05-14 06:00:00 10.9 7 Nordeste 13 Nordeste 0 -- -- 92
2020-05-14 05:00:00 11.1 10 Nordeste 13 Nordeste 0 -- -- 89
2020-05-14 04:00:00 10.8 10 Este 14 Nordeste 0 -- -- 91
2020-05-14 03:00:00 11.2 10 Nordeste 13 Nordeste 0 -- -- 90
2020-05-14 02:00:00 11.8 8 Este 12 Este 0 -- -- 89
2020-05-14 01:00:00 11.8 6 Este 11 Este 0 -- -- 89
2020-05-14 00:00:00 11.7 10 Nordeste 13 Nordeste 0 -- -- 88
2020-05-13 23:00:00 12.8 9 Nordeste 11 Nordeste 0 -- -- 82
2020-05-13 22:00:00 13.6 6 Nordeste 8 Oeste 0 -- -- 78
2020-05-13 21:00:00 16.2 5 Oeste 14 Oeste 0 -- -- 67
2020-05-13 20:00:00 17.3 12 Oeste 17 Oeste 0 -- -- 65
2020-05-13 19:00:00 17 7 Oeste 18 Oeste 0 -- -- 67
2020-05-13 18:00:00 17.4 9 Oeste 16 Oeste 0 -- -- 64
2020-05-13 17:00:00 15.3 12 Oeste 21 Oeste 0 -- -- 75
2020-05-13 16:00:00 16.5 13 Oeste 18 Oeste 0 -- -- 65
2020-05-13 15:00:00 15.9 9 Oeste 17 Oeste 0 -- -- 64
2020-05-13 14:00:00 14.9 11 Oeste 19 Oeste 0 -- -- 73
2020-05-13 13:00:00 14.3 13 Oeste 19 Oeste 0 -- -- 75
2020-05-13 12:00:00 14.4 11 Oeste 19 Oeste 0 -- -- 73
2020-05-13 11:00:00 13.9 12 Oeste 20 Oeste 0 -- -- 74
2020-05-13 10:00:00 13.3 5 Sudoeste 9 Sudoeste 0 -- -- 78
2020-05-13 09:00:00 -- -- -- -- -- -- -- -- --
2020-05-13 08:00:00 9.8 8 Nordeste 12 Este 0 -- -- 89
2020-05-13 07:00:00 9.4 10 Nordeste 15 Este 0 -- -- 91
2020-05-13 06:00:00 9.4 9 Este 16 Este 0 -- -- 92
2020-05-13 05:00:00 9.8 10 Este 19 Este 0 -- -- 94
2020-05-13 04:00:00 9.8 12 Este 23 Este 0 -- -- 93
2020-05-13 03:00:00 10.5 11 Sudeste 24 Sudeste 0 -- -- 90
2020-05-13 02:00:00 10.4 11 Sudeste 37 Este 5.6 -- -- 91
2020-05-13 01:00:00 13.3 26 Este 38 Este 0.2 -- -- 91
2020-05-13 00:00:00 13.5 17 Este 23 Este 0.2 -- -- 93
2020-05-12 23:00:00 13.3 9 Nordeste 15 Este 0.4 -- -- 94
2020-05-12 22:00:00 13.6 3 Nordeste 9 Este 0 -- -- 90
2020-05-12 21:00:00 14.2 5 Este 11 Sudeste 0.2 -- -- 87
2020-05-12 20:00:00 14.4 0 Calma 4 Este 0 -- -- 90
2020-05-12 19:00:00 14.4 3 Este 12 Oeste 0.2 -- -- 87
2020-05-12 18:00:00 14.1 9 Oeste 12 Oeste 0 -- -- 89
2020-05-12 17:00:00 15.1 8 Oeste 11 Oeste 0 -- -- 84
2020-05-12 16:00:00 15.3 5 Oeste 13 Oeste 0 -- -- 81
2020-05-12 15:00:00 15.9 12 Oeste 18 Oeste 0 -- -- 73
2020-05-12 14:00:00 17.1 9 Oeste 17 Sudoeste 0 -- -- 67
2020-05-12 13:00:00 -- 5 Sudoeste 18 Sudoeste 0 -- -- --
2020-05-12 12:00:00 16.8 9 Este 20 Este 0 -- -- 66
2020-05-12 11:00:00 15.4 7 Este 19 Este 0 -- -- 70
2020-05-12 10:00:00 13.1 11 Noroeste 21 Noroeste 0 -- -- 75
2020-05-12 09:00:00 10.9 3 Nordeste 15 Oeste 0 -- -- 91
2020-05-12 08:00:00 9.3 12 Oeste 19 Oeste 0 -- -- 95
2020-05-12 07:00:00 9.2 9 Noroeste 14 Oeste 0 -- -- 90
2020-05-12 06:00:00 9.3 5 Oeste 13 Oeste 0 -- -- 91
2020-05-12 05:00:00 9.9 5 Oeste 14 Oeste 0 -- -- 88
2020-05-12 04:00:00 9.9 9 Oeste 12 Oeste 0 -- -- 89
2020-05-12 03:00:00 11.2 6 Oeste 16 Noroeste 0 -- -- 83
2020-05-12 02:00:00 11.1 9 Oeste 25 Oeste 0 -- -- 85
2020-05-12 01:00:00 13 18 Noroeste 27 Noroeste 0 -- -- 73
2020-05-12 00:00:00 13.9 13 Noroeste 28 Noroeste 0 -- -- 71
2020-05-11 23:00:00 14.7 17 Noroeste 28 Noroeste 0 -- -- 67
2020-05-11 22:00:00 14.8 14 Oeste 18 Oeste 0 -- -- 71
2020-05-11 21:00:00 15.7 11 Oeste 15 Oeste 0 -- -- 71
2020-05-11 20:00:00 17.5 10 Noroeste 27 Noroeste 0 -- -- 58
2020-05-11 19:00:00 19.8 14 Noroeste 32 Oeste 0 -- -- 51
2020-05-11 18:00:00 20.7 13 Noroeste 36 Oeste 0 -- -- 50
2020-05-11 17:00:00 20.4 17 Oeste 35 Oeste 0 -- -- 53
2020-05-11 16:00:00 19.1 21 Oeste 38 Oeste 0 -- -- 54
2020-05-11 15:00:00 18.2 25 Oeste 43 Oeste 0 -- -- 55
2020-05-11 14:00:00 16.9 20 Oeste 41 Oeste 0 -- -- 59
2020-05-11 13:00:00 16.7 17 Oeste 30 Oeste 0 -- -- 67
2020-05-11 12:00:00 15.3 16 Oeste 29 Oeste 0 -- -- 75
2020-05-11 11:00:00 14.9 22 Oeste 33 Oeste 0 -- -- 73
2020-05-11 10:00:00 13.4 17 Noroeste 35 Oeste 0 -- -- 79
2020-05-11 09:00:00 11.8 14 Noroeste 26 Noroeste 0 -- -- 83
2020-05-11 08:00:00 11.1 15 Oeste 33 Noroeste 0 -- -- 86
2020-05-11 07:00:00 11.3 20 Noroeste 40 Noroeste 0 -- -- 83
2020-05-11 06:00:00 11.2 22 Oeste 39 Oeste 0 -- -- 86
2020-05-11 05:00:00 11.3 19 Noroeste 36 Noroeste 0 -- -- 86
2020-05-11 04:00:00 11.1 21 Noroeste 40 Oeste 0 -- -- 88
2020-05-11 03:00:00 11.1 21 Oeste 32 Oeste 0 -- -- 93
2020-05-11 02:00:00 11.2 18 Oeste 31 Oeste 0 -- -- 94
2020-05-11 01:00:00 11.8 19 Noroeste 41 Oeste 0 -- -- 88
2020-05-11 00:00:00 11.6 20 Oeste 38 Oeste 0 -- -- 92
2020-05-10 23:00:00 11.7 22 Noroeste 39 Noroeste 0 -- -- 91
2020-05-10 22:00:00 11.8 21 Oeste 32 Oeste 0.8 -- -- 96
2020-05-10 21:00:00 12 17 Oeste 25 Oeste 0.8 -- -- 97
2020-05-10 20:00:00 11.9 16 Oeste 25 Oeste 1 -- -- 96
2020-05-10 19:00:00 11.8 15 Oeste 35 Noroeste 2 -- -- 94
2020-05-10 18:00:00 12.4 11 Oeste 20 Oeste 0.2 -- -- 97
2020-05-10 17:00:00 12.3 19 Oeste 25 Oeste 2.2 -- -- 96
2020-05-10 16:00:00 13.3 9 Oeste 15 Oeste 0.2 -- -- 91
2020-05-10 15:00:00 12.9 10 Noroeste 18 Noroeste 0.2 -- -- 90
2020-05-10 14:00:00 12.1 5 Oeste 17 Este 1 -- -- 92
2020-05-10 13:00:00 11.3 4 Sudoeste 25 Noroeste 11.2 -- -- 94
2020-05-10 12:00:00 13.5 13 Nordeste 23 Este 0 -- -- 87
2020-05-10 11:00:00 14.3 5 Este 12 Este 0 -- -- 91
2020-05-10 10:00:00 13.8 5 Nordeste 12 Este 0 -- -- 90
2020-05-10 09:00:00 13.6 7 Nordeste 23 Sudeste 0 -- -- 85
2020-05-10 08:00:00 14.1 12 Sudeste 22 Sudeste 0 -- -- 92
2020-05-10 07:00:00 14.1 14 Este 36 Sudeste 0 -- -- 94
2020-05-10 06:00:00 13.6 12 Este 53 Este 3.2 -- -- 90
2020-05-10 05:00:00 14.8 18 Este 42 Sudeste 0 -- -- 90
2020-05-10 04:00:00 14.9 24 Este 39 Este 0 -- -- 89
2020-05-10 03:00:00 14.7 24 Este 39 Este 0 -- -- 90
2020-05-10 02:00:00 14.9 30 Este 48 Este 0 -- -- 88
2020-05-10 01:00:00 15.4 34 Este 46 Este 0 -- -- 86
2020-05-10 00:00:00 15.6 14 Este 45 Este 0 -- -- 87
2020-05-09 23:00:00 15.8 31 Este 59 Este 0 -- -- 85
2020-05-09 22:00:00 16.4 31 Este 46 Este 0 -- -- 81
2020-05-09 21:00:00 17.4 36 Este 47 Este 0 -- -- 78
2020-05-09 20:00:00 19.5 34 Este 45 Este 0 -- -- 66
2020-05-09 19:00:00 20.8 24 Este 42 Este 0 -- -- 60
2020-05-09 18:00:00 20.5 32 Este 51 Este 0 -- -- 55
2020-05-09 17:00:00 22.2 35 Este 48 Este 0 -- -- 46
2020-05-09 16:00:00 24.9 21 Este 42 Este 0 -- -- 40
2020-05-09 15:00:00 24 24 Este 40 Sudeste 0 -- -- 43
2020-05-09 14:00:00 22.5 21 Sudeste 37 Sudeste 0 -- -- 50
2020-05-09 13:00:00 21.1 17 Sudeste 30 Sudeste 0 -- -- 56
2020-05-09 12:00:00 19.9 17 Sudeste 27 Este 0 -- -- 51
2020-05-09 11:00:00 16.7 4 Sur 31 Nordeste 0 -- -- 57
2020-05-09 10:00:00 13.7 23 Este 30 Este 0 -- -- 72
2020-05-09 09:00:00 13 9 Sur 28 Este 0 -- -- 70
2020-05-09 08:00:00 12 23 Nordeste 35 Este 1.8 -- -- 75
2020-05-09 07:00:00 12 12 Oeste 21 Este 0.2 -- -- 81
2020-05-09 06:00:00 12.7 2 Sudeste 37 Nordeste 0 -- -- 74
2020-05-09 05:00:00 13.8 18 Este 50 Oeste 4.6 -- -- 67
2020-05-09 04:00:00 15 26 Este 44 Este 0 -- -- 58
2020-05-09 03:00:00 15.1 33 Este 46 Este 0 -- -- 65
2020-05-09 02:00:00 15.5 34 Este 46 Este 0 -- -- 62
2020-05-09 01:00:00 16.1 26 Este 46 Este 0 -- -- 54
2020-05-09 00:00:00 16.9 29 Este 55 Este 0 -- -- 55
2020-05-08 23:00:00 17.6 44 Este 57 Este 0.4 -- -- 58
2020-05-08 22:00:00 19.9 28 Este 43 Este 0 -- -- 44
2020-05-08 21:00:00 21 28 Este 55 Este 0 -- -- 42
2020-05-08 20:00:00 23.2 37 Este 54 Este 0 -- -- 41
2020-05-08 19:00:00 24.4 33 Este 45 Este 0 -- -- 40
2020-05-08 18:00:00 25.1 31 Este 48 Este 0 -- -- 38
2020-05-08 17:00:00 25.4 21 Este 44 Este 0 -- -- 37
2020-05-08 16:00:00 25.3 19 Sudeste 44 Este 0 -- -- 36
2020-05-08 15:00:00 24.4 25 Este 38 Este 0 -- -- 36
2020-05-08 14:00:00 23.9 28 Este 41 Sudeste 0 -- -- 39
2020-05-08 13:00:00 22.6 25 Este 34 Este 0 -- -- 40
2020-05-08 12:00:00 21.6 17 Este 31 Este 0 -- -- 45
2020-05-08 11:00:00 20.4 19 Sudeste 38 Este 0 -- -- 49
2020-05-08 10:00:00 19.2 26 Este 37 Este 0 -- -- 56
2020-05-08 09:00:00 16.8 4 Este 31 Este 0 -- -- 64
2020-05-08 08:00:00 15.1 11 Sudeste 43 Este 0 -- -- 68
2020-05-08 07:00:00 14.7 31 Este 42 Este 0 -- -- 68
2020-05-08 06:00:00 14.8 26 Este 37 Este 0 -- -- 68
2020-05-08 05:00:00 14.9 26 Este 35 Este 0 -- -- 67
2020-05-08 04:00:00 15.3 28 Este 44 Este 0 -- -- 65
2020-05-08 03:00:00 15.5 32 Este 40 Este 0 -- -- 65
2020-05-08 02:00:00 15.4 24 Este 35 Este 0 -- -- 66
2020-05-08 01:00:00 16.4 29 Este 39 Este 0 -- -- 62
2020-05-08 00:00:00 19 29 Este 45 Nordeste 0 -- -- 57
2020-05-07 23:00:00 20 15 Este 49 Este 0 -- -- 55
2020-05-07 22:00:00 20.8 27 Este 41 Este 0 -- -- 53
2020-05-07 21:00:00 21.7 25 Este 47 Este 0 -- -- 51
2020-05-07 20:00:00 22.8 36 Este 52 Este 0 -- -- 48
2020-05-07 19:00:00 24.1 38 Este 51 Este 0 -- -- 48
2020-05-07 18:00:00 24.8 30 Este 51 Este 0 -- -- 48
2020-05-07 17:00:00 26 30 Este 50 Este 0 -- -- 44
2020-05-07 16:00:00 25.9 26 Este 44 Este 0 -- -- 44
2020-05-07 15:00:00 25.3 29 Este 45 Este 0 -- -- 44
2020-05-07 14:00:00 24.5 21 Este 40 Este 0 -- -- 48
2020-05-07 13:00:00 23.8 21 Sudeste 39 Este 0 -- -- 49
2020-05-07 12:00:00 22.8 17 Sudeste 30 Este 0 -- -- 54
2020-05-07 11:00:00 21.4 17 Sudeste 33 Este 0 -- -- 56
2020-05-07 10:00:00 19.4 16 Sudeste 26 Sudeste 0 -- -- 61
2020-05-07 09:00:00 17.3 20 Este 29 Este 0 -- -- 69
2020-05-07 08:00:00 15.8 17 Este 24 Este 0 -- -- 74
2020-05-07 07:00:00 13.9 14 Este 19 Este 0 -- -- 80
2020-05-07 06:00:00 13.9 14 Este 19 Este 0 -- -- 79
2020-05-07 05:00:00 12.4 11 Nordeste 14 Nordeste 0 -- -- 84
2020-05-07 04:00:00 12.8 9 Este 14 Este 0 -- -- 77
2020-05-07 03:00:00 14.5 8 Nordeste 10 Nordeste 0 -- -- 70
2020-05-07 02:00:00 15.9 2 Nordeste 13 Nordeste 0 -- -- 67
2020-05-07 01:00:00 15.8 10 Nordeste 14 Nordeste 0 -- -- 66
2020-05-07 00:00:00 16.7 10 Nordeste 14 Nordeste 0 -- -- 57
2020-05-06 23:00:00 17.1 9 Este 13 Este 0 -- -- 50
2020-05-06 22:00:00 19.1 7 Nordeste 12 Noroeste 0 -- -- 43
2020-05-06 21:00:00 -- -- -- -- -- -- -- -- --
2020-05-06 20:00:00 -- 12 Oeste -- -- -- -- -- --
2020-05-06 19:00:00 25 10 Oeste 22 Oeste 0 -- -- 30
2020-05-06 18:00:00 25.2 14 Sudoeste 26 Sudoeste 0 -- -- 33
2020-05-06 17:00:00 25.3 13 Sudoeste 23 Oeste 0 -- -- 35
2020-05-06 16:00:00 24.7 11 Oeste 24 Oeste 0 -- -- 35
2020-05-06 15:00:00 23.4 13 Oeste 23 Sudoeste 0 -- -- 43
2020-05-06 14:00:00 22.6 17 Oeste 29 Sudoeste 0 -- -- 44
2020-05-06 13:00:00 21.5 14 Oeste 26 Oeste 0 -- -- 48
2020-05-06 12:00:00 20 16 Oeste 23 Sudoeste 0 -- -- 53
2020-05-06 11:00:00 18.5 14 Oeste 23 Oeste 0 -- -- 56
2020-05-06 10:00:00 16.7 13 Oeste 18 Oeste 0 -- -- 64
2020-05-06 09:00:00 14.9 9 Oeste 13 Sudoeste 0 -- -- 69
2020-05-06 08:00:00 12.6 4 Este 8 Este 0 -- -- 74
2020-05-06 07:00:00 12.2 3 Este 8 Este 0 -- -- 78
2020-05-06 06:00:00 11.6 4 Este 9 Este 0 -- -- 83
2020-05-06 05:00:00 13.1 3 Este 9 Nordeste 0 -- -- 76
2020-05-06 04:00:00 13.4 3 Este 4 Este 0 -- -- 73
2020-05-06 03:00:00 14 3 Este 10 Este 0 -- -- 61
2020-05-06 02:00:00 15 2 Nordeste 12 Este 0 -- -- 55
2020-05-06 01:00:00 15 8 Nordeste 14 Nordeste 0 -- -- 48
2020-05-06 00:00:00 15.3 14 Nordeste 18 Nordeste 0 -- -- 46
2020-05-05 23:00:00 16.2 12 Nordeste 14 Nordeste 0 -- -- 48
2020-05-05 22:00:00 17.1 12 Nordeste 15 Nordeste 0 -- -- 51
2020-05-05 21:00:00 21.8 3 Norte 12 Este 0 -- -- 36
2020-05-05 20:00:00 23.8 5 Este 17 Nordeste 0 -- -- 35
2020-05-05 19:00:00 24.6 5 Este 15 Nordeste 0 -- -- 32
2020-05-05 18:00:00 24.9 7 Nordeste 21 Este 0 -- -- 35
2020-05-05 17:00:00 25.3 3 Sur 19 Oeste 0 -- -- 33
2020-05-05 16:00:00 23.2 13 Oeste 22 Oeste 0 -- -- 42
2020-05-05 15:00:00 23.6 9 Oeste 23 Oeste 0 -- -- 42
2020-05-05 14:00:00 23.2 14 Oeste 24 Sudoeste 0 -- -- 43
2020-05-05 13:00:00 21.9 17 Oeste 26 Oeste 0 -- -- 46
2020-05-05 12:00:00 21.4 13 Oeste 21 Oeste 0 -- -- 56
2020-05-05 11:00:00 19.6 14 Oeste 20 Sudoeste 0 -- -- 65
2020-05-05 10:00:00 17.3 11 Oeste 14 Oeste 0 -- -- 77
2020-05-05 09:00:00 15.8 9 Oeste 12 Oeste 0 -- -- 81
2020-05-05 08:00:00 14 2 Noroeste 10 Nordeste 0 -- -- 87
2020-05-05 07:00:00 14.1 0 Calma 10 Este 0 -- -- 80
2020-05-05 06:00:00 15.4 8 Nordeste 17 Nordeste 0 -- -- 74
2020-05-05 05:00:00 15.1 13 Nordeste 22 Nordeste 0 -- -- 76
2020-05-05 04:00:00 15.2 13 Nordeste 17 Nordeste 0 -- -- 75
2020-05-05 03:00:00 15.8 12 Nordeste 17 Nordeste 0 -- -- 74
2020-05-05 02:00:00 17.3 12 Este 23 Este 0 -- -- 69
2020-05-05 01:00:00 18.7 19 Este 28 Este 0 -- -- 65
2020-05-05 00:00:00 19.1 20 Este 38 Este 0 -- -- 64
2020-05-04 23:00:00 20 26 Este 43 Este 0 -- -- 65
2020-05-04 22:00:00 21.4 25 Este 50 Este 0 -- -- 57
2020-05-04 21:00:00 22.4 33 Este 47 Este 0 -- -- 58
2020-05-04 20:00:00 23.8 29 Este 45 Este 0 -- -- 60
2020-05-04 19:00:00 24.6 33 Este 47 Este 0 -- -- 58
2020-05-04 18:00:00 24.8 31 Este 44 Este 0 -- -- 54
2020-05-04 17:00:00 24.6 21 Este 56 Este 0 -- -- 54
2020-05-04 16:00:00 25.6 36 Este 54 Este 0 -- -- 48
2020-05-04 15:00:00 25.4 36 Este 50 Este 0 -- -- 50
2020-05-04 14:00:00 25.7 31 Este 50 Este 0 -- -- 51
2020-05-04 13:00:00 24.6 32 Este 45 Este 0 -- -- 51
2020-05-04 12:00:00 23.4 31 Este 42 Este 0 -- -- 52
2020-05-04 11:00:00 -- 27 Este 44 Este 0 -- -- --
2020-05-04 10:00:00 20.1 29 Este 43 Sudeste 0 -- -- 61
2020-05-04 09:00:00 18.3 28 Este 41 Este 0 -- -- 65
2020-05-04 08:00:00 16.4 21 Este 31 Este 0 -- -- 73
2020-05-04 07:00:00 16.8 21 Este 31 Este 0 -- -- 71
2020-05-04 06:00:00 16.3 21 Este 29 Este 0 -- -- 75
2020-05-04 05:00:00 16.1 19 Este 28 Este 0 -- -- 79
2020-05-04 04:00:00 16.7 19 Este 28 Este 0 -- -- 79
2020-05-04 03:00:00 17.2 23 Este 28 Este 0 -- -- 77
2020-05-04 02:00:00 18.3 20 Este 26 Este 0 -- -- 67
2020-05-04 01:00:00 19.8 19 Este 29 Este 0 -- -- 62
2020-05-04 00:00:00 20 19 Este 24 Este 0 -- -- 60
2020-05-03 23:00:00 20 13 Este 19 Este 0 -- -- 58
2020-05-03 22:00:00 21.2 14 Este 18 Este 0 -- -- 56
2020-05-03 21:00:00 22.9 12 Este 19 Este 0 -- -- 52
2020-05-03 20:00:00 24.9 15 Este 21 Este 0 -- -- 47
2020-05-03 19:00:00 26.3 11 Este 22 Este 0 -- -- 44
2020-05-03 18:00:00 26.9 6 Este 16 Nordeste 0 -- -- 46
2020-05-03 17:00:00 26.8 4 Oeste 15 Sudoeste 0 -- -- 40
2020-05-03 16:00:00 26.3 4 Sudoeste 16 Sudoeste 0 -- -- 45
2020-05-03 15:00:00 25.1 12 Oeste 20 Oeste 0 -- -- 46
2020-05-03 14:00:00 23.9 6 Sudoeste 14 Sudoeste 0 -- -- 45
2020-05-03 13:00:00 21.6 5 Oeste 17 Oeste 0 -- -- 49
2020-05-03 12:00:00 19.6 12 Oeste 18 Oeste 0 -- -- 65
2020-05-03 11:00:00 17.7 12 Oeste 17 Oeste 0 -- -- 70
2020-05-03 10:00:00 15.8 11 Oeste 15 Oeste 0 -- -- 79
2020-05-03 09:00:00 13.9 3 Este 6 Este 0 -- -- 84
2020-05-03 08:00:00 11.5 5 Este 7 Este 0 -- -- 90
2020-05-03 07:00:00 10.9 2 Este 7 Este 0 -- -- 89
2020-05-03 06:00:00 11.3 5 Este 8 Este 0 -- -- 89
2020-05-03 05:00:00 11.7 0 Calma 5 Noroeste 0 -- -- 86
2020-05-03 04:00:00 11.9 4 Este 6 Este 0 -- -- 87
2020-05-03 03:00:00 12.8 0 Calma 8 Oeste 0 -- -- 86
2020-05-03 02:00:00 13.2 8 Oeste 14 Noroeste 0 -- -- 87
2020-05-03 01:00:00 13.6 12 Oeste 15 Oeste 0 -- -- 89
2020-05-03 00:00:00 16.4 0 Calma 24 Noroeste 0 -- -- 75